createdAt,value
2023-11-25T00:03:45.373Z,6.00
2023-11-25T00:07:47.484Z,5.53
2023-11-25T00:11:49.240Z,6.37
2023-11-25T00:15:50.633Z,6.50
2023-11-25T00:19:51.943Z,6.37
2023-11-25T00:23:53.588Z,5.80
2023-11-25T00:27:54.939Z,4.97
2023-11-25T00:31:56.249Z,4.63
2023-11-25T00:35:57.668Z,5.27
2023-11-25T00:40:00.374Z,4.80
2023-11-25T00:44:04.365Z,4.97
2023-11-25T00:48:07.886Z,4.73
2023-11-25T00:52:09.612Z,4.87
2023-11-25T00:56:11.730Z,3.80
2023-11-25T01:00:17.490Z,3.83
2023-11-25T01:04:19.314Z,4.07
2023-11-25T01:08:21.356Z,4.27
2023-11-25T01:12:23.759Z,4.70
2023-11-25T01:16:26.093Z,4.33
2023-11-25T01:20:27.902Z,4.30
2023-11-25T01:24:29.680Z,4.20
2023-11-25T01:28:31.183Z,4.13
2023-11-25T01:32:32.728Z,4.13
2023-11-25T01:36:34.120Z,4.30
2023-11-25T01:40:35.537Z,4.77
2023-11-25T01:44:36.862Z,4.30
2023-11-25T01:48:38.637Z,5.07
2023-11-25T01:52:41.719Z,5.50
2023-11-25T01:56:45.582Z,5.23
2023-11-25T02:00:47.929Z,5.23
2023-11-25T02:04:49.496Z,6.10
2023-11-25T02:08:51.743Z,5.03
2023-11-25T02:12:53.087Z,4.53
2023-11-25T02:16:58.252Z,5.50
2023-11-25T02:20:59.806Z,5.87
2023-11-25T02:25:01.119Z,7.23
2023-11-25T02:29:02.578Z,5.13
2023-11-25T02:33:04.157Z,6.83
2023-11-25T02:37:08.092Z,6.07
2023-11-25T02:41:11.463Z,6.73
2023-11-25T02:45:13.232Z,7.53
2023-11-25T02:49:14.878Z,5.50
2023-11-25T02:53:16.280Z,5.57
2023-11-25T02:57:20.258Z,5.50
2023-11-25T03:01:24.752Z,4.87
2023-11-25T03:05:26.123Z,4.70
2023-11-25T03:09:29.113Z,5.50
2023-11-25T03:13:30.575Z,4.67
2023-11-25T03:17:31.978Z,4.10
2023-11-25T03:21:35.015Z,5.97
2023-11-25T03:25:36.473Z,5.63
2023-11-25T03:29:37.965Z,5.10
2023-11-25T03:33:39.600Z,5.00
2023-11-25T03:37:41.322Z,5.03
2023-11-25T03:41:42.745Z,4.47
2023-11-25T03:45:44.071Z,4.97
2023-11-25T03:49:46.135Z,4.70
2023-11-25T03:53:48.287Z,4.10
2023-11-25T03:57:49.784Z,4.77
2023-11-25T04:01:51.709Z,5.77
2023-11-25T04:05:53.383Z,4.27
2023-11-25T04:09:54.691Z,5.07
2023-11-25T04:13:58.556Z,4.27
2023-11-25T04:17:59.995Z,4.00
2023-11-25T04:22:02.464Z,4.77
2023-11-25T04:26:03.890Z,4.00
2023-11-25T04:30:06.334Z,4.63
2023-11-25T04:34:07.658Z,4.00
2023-11-25T04:38:09.317Z,4.57
2023-11-25T04:42:10.655Z,4.10
2023-11-25T04:46:12.364Z,4.73
2023-11-25T04:50:14.965Z,5.53
2023-11-25T04:54:16.409Z,4.20
2023-11-25T04:58:17.810Z,4.20
2023-11-25T05:02:19.282Z,4.23
2023-11-25T05:06:20.833Z,5.03
2023-11-25T05:10:22.440Z,4.23
2023-11-25T05:14:25.701Z,4.37
2023-11-25T05:18:27.107Z,4.00
2023-11-25T05:22:29.339Z,4.37
2023-11-25T05:26:31.006Z,4.53
2023-11-25T05:30:32.350Z,4.43
2023-11-25T05:34:33.954Z,4.00
2023-11-25T05:38:36.732Z,4.27
2023-11-25T05:42:48.366Z,3.90
2023-11-25T05:46:50.595Z,3.97
2023-11-25T05:50:52.003Z,3.60
2023-11-25T05:54:53.441Z,4.20
2023-11-25T05:58:55.100Z,3.97
2023-11-25T06:02:57.067Z,3.83
2023-11-25T06:06:58.403Z,4.77
2023-11-25T06:10:59.750Z,4.33
2023-11-25T06:15:01.577Z,4.60
2023-11-25T06:19:05.009Z,4.00
2023-11-25T06:23:06.347Z,3.40
2023-11-25T06:27:07.941Z,4.43
2023-11-25T06:31:13.541Z,4.47
2023-11-25T06:35:15.069Z,4.03
2023-11-25T06:39:20.282Z,4.20
2023-11-25T06:43:21.739Z,4.83
2023-11-25T06:47:23.469Z,4.37
2023-11-25T06:51:24.918Z,4.63
2023-11-25T06:55:26.297Z,4.10
2023-11-25T06:59:27.854Z,4.30
2023-11-25T07:03:29.218Z,4.33
2023-11-25T07:07:30.908Z,3.93
2023-11-25T07:11:32.433Z,4.60
2023-11-25T07:15:33.833Z,4.57
2023-11-25T07:19:35.171Z,3.63
2023-11-25T07:23:37.237Z,4.50
2023-11-25T07:27:39.592Z,3.97
2023-11-25T07:31:41.103Z,5.13
2023-11-25T07:35:42.524Z,4.80
2023-11-25T07:39:45.515Z,4.10
2023-11-25T07:43:47.274Z,4.37
2023-11-25T07:47:49.001Z,4.77
2023-11-25T07:51:50.745Z,4.23
2023-11-25T07:55:53.142Z,4.17
2023-11-25T07:59:54.757Z,3.90
2023-11-25T08:03:56.283Z,4.23
2023-11-25T08:07:57.911Z,3.63
2023-11-25T08:11:59.675Z,3.97
2023-11-25T08:16:02.164Z,3.43
2023-11-25T08:20:05.051Z,3.77
2023-11-25T08:24:06.871Z,3.97
2023-11-25T08:28:08.361Z,3.93
2023-11-25T08:32:10.029Z,3.27
2023-11-25T08:36:12.599Z,3.50
2023-11-25T08:40:18.200Z,4.03
2023-11-25T08:44:20.867Z,3.67
2023-11-25T08:48:22.269Z,4.70
2023-11-25T08:52:24.378Z,2.77
2023-11-25T08:56:29.720Z,3.43
2023-11-25T09:00:33.193Z,3.23
2023-11-25T09:04:37.197Z,4.03
2023-11-25T09:08:38.578Z,3.03
2023-11-25T09:12:41.155Z,3.33
2023-11-25T09:16:43.864Z,3.30
2023-11-25T09:20:46.257Z,5.53
2023-11-25T09:24:47.587Z,5.63
2023-11-25T09:28:49.046Z,3.73
2023-11-25T09:32:50.574Z,3.00
2023-11-25T09:36:51.981Z,3.60
2023-11-25T09:40:53.486Z,2.90
2023-11-25T09:44:55.922Z,3.73
2023-11-25T09:48:57.368Z,3.40
2023-11-25T09:53:00.401Z,3.87
2023-11-25T09:57:04.700Z,3.30
2023-11-25T10:01:13.271Z,3.10
2023-11-25T10:05:14.813Z,3.27
2023-11-25T10:09:16.796Z,3.37
2023-11-25T10:13:18.120Z,3.60
2023-11-25T10:17:20.957Z,2.80
2023-11-25T10:21:22.291Z,2.93
2023-11-25T10:25:24.224Z,2.40
2023-11-25T10:29:26.077Z,2.80
2023-11-25T10:33:28.524Z,3.13
2023-11-25T10:37:32.734Z,2.70
2023-11-25T10:41:35.076Z,3.10
2023-11-25T10:45:36.633Z,2.73
2023-11-25T10:49:40.131Z,2.13
2023-11-25T10:53:45.685Z,2.73
2023-11-25T10:57:53.112Z,2.80
2023-11-25T11:02:15.513Z,2.40
2023-11-25T11:06:25.062Z,3.00
2023-11-25T11:10:32.319Z,3.13
2023-11-25T11:14:37.907Z,2.60
2023-11-25T11:18:42.656Z,2.90
2023-11-25T11:22:44.274Z,2.43
2023-11-25T11:26:52.608Z,2.73
2023-11-25T11:31:31.353Z,2.67
2023-11-25T11:35:39.824Z,2.97
2023-11-25T11:39:56.169Z,2.90
2023-11-25T11:44:05.024Z,3.40
2023-11-25T11:48:14.995Z,3.73
2023-11-25T11:52:16.375Z,3.90
2023-11-25T11:56:18.573Z,2.90
2023-11-25T12:00:20.043Z,3.37
2023-11-25T12:04:22.075Z,3.07
2023-11-25T12:08:24.461Z,2.97
2023-11-25T12:12:26.184Z,3.40
2023-11-25T12:16:27.642Z,3.83
2023-11-25T12:20:29.630Z,3.43
2023-11-25T12:24:31.098Z,3.33
2023-11-25T12:28:41.440Z,3.57
2023-11-25T12:32:44.735Z,3.87
2023-11-25T12:36:46.318Z,2.70
2023-11-25T12:40:47.814Z,3.13
2023-11-25T12:44:51.444Z,3.67
2023-11-25T12:48:53.070Z,3.77
2023-11-25T12:53:09.027Z,4.20
2023-11-25T12:57:11.551Z,4.00
2023-11-25T13:01:13.728Z,3.40
2023-11-25T13:05:25.407Z,3.00
2023-11-25T13:09:34.693Z,3.87
2023-11-25T13:13:36.654Z,2.90
2023-11-25T13:17:38.102Z,2.97
2023-11-25T13:21:41.284Z,3.20
2023-11-25T13:25:42.768Z,3.10
2023-11-25T13:29:44.384Z,3.40
2023-11-25T13:33:45.936Z,2.50
2023-11-25T13:37:47.466Z,3.17
2023-11-25T13:41:48.906Z,2.90
2023-11-25T13:45:50.308Z,2.70
2023-11-25T13:49:54.642Z,2.90
2023-11-25T13:54:00.249Z,2.97
2023-11-25T13:58:01.713Z,2.80
2023-11-25T14:02:04.021Z,2.87
2023-11-25T14:06:05.983Z,2.80
2023-11-25T14:10:10.431Z,3.27
2023-11-25T14:14:13.235Z,3.63
2023-11-25T14:18:14.842Z,4.37
2023-11-25T14:22:20.090Z,3.53
2023-11-25T14:26:21.428Z,3.10
2023-11-25T14:30:24.373Z,3.17
2023-11-25T14:34:25.780Z,3.60
2023-11-25T14:38:27.151Z,3.70
2023-11-25T14:42:32.294Z,3.57
2023-11-25T14:46:34.856Z,3.23
2023-11-25T14:50:44.350Z,3.30
2023-11-25T14:54:46.043Z,3.43
2023-11-25T14:58:47.596Z,2.60
2023-11-25T15:02:50.116Z,3.00
2023-11-25T15:06:51.515Z,2.93
2023-11-25T15:10:52.956Z,3.17
2023-11-25T15:14:55.785Z,3.10
2023-11-25T15:18:57.368Z,3.00
2023-11-25T15:23:00.808Z,3.33
2023-11-25T15:27:03.182Z,3.60
2023-11-25T15:31:05.076Z,3.50
2023-11-25T15:35:08.373Z,3.50
2023-11-25T15:39:10.198Z,3.47
2023-11-25T15:43:11.517Z,3.33
2023-11-25T15:47:12.906Z,3.00
2023-11-25T15:51:14.413Z,3.70
2023-11-25T15:55:15.720Z,4.33
2023-11-25T15:59:17.054Z,4.80
2023-11-25T16:03:18.460Z,2.63
2023-11-25T16:07:21.928Z,2.20
2023-11-25T16:11:24.444Z,3.23
2023-11-25T16:15:25.954Z,3.30
2023-11-25T16:19:27.588Z,4.27
2023-11-25T16:23:29.460Z,5.17
2023-11-25T16:27:30.758Z,6.43
2023-11-25T16:31:32.405Z,6.43
2023-11-25T16:35:33.897Z,6.00
2023-11-25T16:39:37.793Z,6.60
2023-11-25T16:43:39.933Z,5.47
2023-11-25T16:47:41.391Z,4.70
2023-11-25T16:51:43.135Z,5.43
2023-11-25T16:55:44.733Z,4.60
2023-11-25T16:59:46.175Z,4.13
2023-11-25T17:03:47.885Z,4.73
2023-11-25T17:07:49.501Z,7.80
2023-11-25T17:11:50.963Z,6.73
2023-11-25T17:15:52.267Z,4.33
2023-11-25T17:19:53.789Z,4.50
2023-11-25T17:23:55.420Z,3.77
2023-11-25T17:27:57.824Z,3.80
2023-11-25T17:31:59.564Z,4.63
2023-11-25T17:36:00.938Z,5.30
2023-11-25T17:40:02.700Z,3.90
2023-11-25T17:44:04.266Z,5.40
2023-11-25T17:48:06.320Z,4.60
2023-11-25T17:52:11.216Z,4.00
2023-11-25T17:56:12.579Z,4.57
2023-11-25T18:00:14.159Z,4.03
2023-11-25T18:04:15.533Z,3.67
2023-11-25T18:08:16.907Z,3.57
2023-11-25T18:12:18.280Z,3.20
2023-11-25T18:16:19.887Z,4.03
2023-11-25T18:20:21.329Z,4.40
2023-11-25T18:24:22.691Z,5.60
2023-11-25T18:28:23.999Z,6.00
2023-11-25T18:32:25.329Z,9.43
2023-11-25T18:36:26.705Z,8.10
2023-11-25T18:40:29.307Z,9.27
2023-11-25T18:44:30.768Z,6.93
2023-11-25T18:48:35.668Z,8.53
2023-11-25T18:52:38.388Z,9.77
2023-11-25T18:56:39.776Z,9.33
2023-11-25T19:00:41.446Z,8.97
2023-11-25T19:04:42.876Z,7.87
2023-11-25T19:08:44.224Z,7.77
2023-11-25T19:12:45.612Z,7.00
2023-11-25T19:16:47.110Z,6.40
2023-11-25T19:20:48.536Z,7.70
2023-11-25T19:24:49.842Z,6.53
2023-11-25T19:28:51.582Z,5.83
2023-11-25T19:32:53.059Z,6.20
2023-11-25T19:36:54.600Z,6.17
2023-11-25T19:40:55.983Z,6.33
2023-11-25T19:44:57.520Z,5.17
2023-11-25T19:48:59.720Z,5.27
2023-11-25T19:53:01.112Z,4.70
2023-11-25T19:57:02.484Z,5.30
2023-11-25T20:01:04.084Z,7.07
2023-11-25T20:05:06.491Z,6.07
2023-11-25T20:09:09.688Z,5.63
2023-11-25T20:13:11.101Z,5.33
2023-11-25T20:17:12.620Z,5.60
2023-11-25T20:21:14.350Z,5.13
2023-11-25T20:25:15.805Z,5.40
2023-11-25T20:29:17.149Z,5.60
2023-11-25T20:33:18.558Z,6.17
2023-11-25T20:37:19.963Z,6.43
2023-11-25T20:41:21.284Z,5.97
2023-11-25T20:45:22.805Z,5.33
2023-11-25T20:49:24.481Z,5.63
2023-11-25T20:53:27.070Z,5.60
2023-11-25T20:57:28.404Z,6.33
2023-11-25T21:01:31.390Z,5.40
2023-11-25T21:05:35.790Z,4.73
2023-11-25T21:09:37.312Z,6.00
2023-11-25T21:13:40.395Z,5.43
2023-11-25T21:18:12.530Z,5.57
2023-11-25T21:22:13.980Z,7.20
2023-11-25T21:26:15.519Z,4.93
2023-11-25T21:30:20.379Z,5.53
2023-11-25T21:34:22.774Z,5.80
2023-11-25T21:38:33.623Z,5.73
2023-11-25T21:42:35.019Z,5.83
2023-11-25T21:46:36.440Z,6.87
2023-11-25T21:50:37.833Z,8.20
2023-11-25T21:54:39.269Z,7.03
2023-11-25T21:58:41.655Z,6.80
2023-11-25T22:02:43.308Z,6.90
2023-11-25T22:06:44.931Z,6.93
2023-11-25T22:10:46.653Z,6.60
2023-11-25T22:14:47.985Z,6.13
2023-11-25T22:18:51.737Z,6.00
2023-11-25T22:22:53.405Z,5.93
2023-11-25T22:27:09.283Z,6.37
2023-11-25T22:31:16.747Z,6.77
2023-11-25T22:35:20.746Z,7.30
2023-11-25T22:39:22.410Z,7.60
2023-11-25T22:43:23.759Z,7.23
2023-11-25T22:47:25.293Z,6.63
2023-11-25T22:51:27.559Z,10.33
2023-11-25T22:55:29.252Z,7.57
2023-11-25T22:59:30.688Z,6.77
2023-11-25T23:03:32.458Z,6.37
2023-11-25T23:07:33.904Z,7.20
2023-11-25T23:11:35.636Z,7.50
2023-11-25T23:15:37.201Z,5.97
2023-11-25T23:19:38.573Z,5.40
2023-11-25T23:23:46.167Z,5.53
2023-11-25T23:27:50.483Z,7.70
2023-11-25T23:31:52.177Z,12.60
2023-11-25T23:35:53.657Z,6.83
2023-11-25T23:39:55.040Z,5.73
2023-11-25T23:43:56.429Z,5.50
2023-11-25T23:47:58.308Z,5.70
2023-11-25T23:52:00.602Z,5.20
2023-11-25T23:56:02.114Z,5.70
